createdAt,value
2017-11-06T00:01:33.730Z,69.80
2017-11-06T00:04:02.951Z,70.00
2017-11-06T00:06:30.548Z,70.00
2017-11-06T00:08:58.955Z,70.10
2017-11-06T00:11:26.410Z,70.20
2017-11-06T00:13:53.864Z,70.20
2017-11-06T00:16:21.780Z,70.10
2017-11-06T00:18:51.528Z,70.20
2017-11-06T00:21:19.162Z,70.00
2017-11-06T00:23:48.051Z,70.00
2017-11-06T00:26:15.531Z,70.00
2017-11-06T00:28:42.967Z,70.00
2017-11-06T00:31:10.954Z,70.00
2017-11-06T00:33:38.395Z,69.90
2017-11-06T00:36:06.693Z,69.70
2017-11-06T00:38:35.490Z,69.60
2017-11-06T00:41:03.103Z,69.70
2017-11-06T00:43:31.812Z,69.70
2017-11-06T00:45:59.279Z,70.00
2017-11-06T00:48:28.585Z,70.00
2017-11-06T00:50:56.447Z,70.30
2017-11-06T00:53:23.974Z,70.50
2017-11-06T00:55:51.970Z,70.70
2017-11-06T00:58:19.807Z,70.50
2017-11-06T01:00:47.464Z,70.60
2017-11-06T01:03:15.431Z,70.50
2017-11-06T01:05:42.888Z,70.80
2017-11-06T01:08:10.996Z,70.80
2017-11-06T01:10:38.616Z,70.70
2017-11-06T01:13:06.069Z,70.70
2017-11-06T01:15:33.533Z,71.30
2017-11-06T01:18:01.217Z,70.70
2017-11-06T01:20:29.240Z,70.50
2017-11-06T01:22:58.090Z,70.60
2017-11-06T01:25:25.550Z,70.60
2017-11-06T01:27:53.043Z,70.70
2017-11-06T01:30:22.542Z,70.40
2017-11-06T01:32:51.083Z,70.50
2017-11-06T01:35:18.539Z,70.50
2017-11-06T01:37:46.029Z,70.60
2017-11-06T01:40:13.973Z,70.60
2017-11-06T01:42:41.835Z,70.60
2017-11-06T01:45:09.281Z,70.60
2017-11-06T01:47:36.844Z,70.60
2017-11-06T01:50:04.556Z,70.40
2017-11-06T01:52:32.241Z,70.70
2017-11-06T01:55:00.149Z,70.70
2017-11-06T01:57:28.209Z,70.80
2017-11-06T01:59:55.784Z,71.00
2017-11-06T02:02:23.216Z,71.20
2017-11-06T02:04:50.901Z,71.10
2017-11-06T02:07:20.213Z,71.40
2017-11-06T02:09:48.435Z,71.40
2017-11-06T02:12:16.228Z,71.20
2017-11-06T02:14:43.678Z,71.20
2017-11-06T02:17:11.459Z,71.10
2017-11-06T02:19:39.252Z,71.10
2017-11-06T02:22:06.746Z,71.20
2017-11-06T02:24:34.522Z,71.30
2017-11-06T02:27:02.003Z,71.40
2017-11-06T02:29:29.492Z,71.60
2017-11-06T02:31:58.255Z,71.80
2017-11-06T02:34:25.893Z,71.80
2017-11-06T02:36:53.342Z,71.70
2017-11-06T02:39:22.759Z,71.50
2017-11-06T02:41:50.198Z,71.50
2017-11-06T02:44:18.793Z,71.40
2017-11-06T02:46:46.242Z,71.40
2017-11-06T02:49:14.161Z,71.30
2017-11-06T02:51:42.369Z,71.40
2017-11-06T02:54:10.181Z,71.40
2017-11-06T02:56:39.826Z,72.30
2017-11-06T02:59:07.753Z,71.80
2017-11-06T03:01:35.219Z,71.30
2017-11-06T03:04:02.933Z,71.00
2017-11-06T03:06:30.382Z,71.10
2017-11-06T03:08:58.882Z,71.20
2017-11-06T03:11:27.435Z,71.20
2017-11-06T03:13:54.994Z,71.30
2017-11-06T03:16:22.543Z,71.30
2017-11-06T03:18:50.110Z,71.20
2017-11-06T03:21:17.552Z,71.10
2017-11-06T03:23:45.022Z,71.10
2017-11-06T03:26:12.582Z,71.00
2017-11-06T03:28:40.101Z,70.80
2017-11-06T03:31:08.666Z,70.60
2017-11-06T03:33:36.141Z,70.60
2017-11-06T03:36:04.378Z,70.40
2017-11-06T03:38:33.381Z,70.40
2017-11-06T03:41:00.928Z,70.30
2017-11-06T03:43:28.917Z,70.30
2017-11-06T03:45:56.588Z,70.30
2017-11-06T03:48:25.660Z,69.90
2017-11-06T03:50:53.118Z,69.90
2017-11-06T03:53:20.879Z,69.80
2017-11-06T03:55:49.800Z,69.70
2017-11-06T03:58:18.651Z,69.90
2017-11-06T04:00:46.096Z,69.80
2017-11-06T04:03:14.027Z,70.00
2017-11-06T04:05:42.261Z,70.20
2017-11-06T04:08:10.101Z,70.10
2017-11-06T04:10:37.565Z,70.30
2017-11-06T04:13:05.469Z,70.60
2017-11-06T04:15:32.960Z,70.50
2017-11-06T04:18:00.442Z,70.90
2017-11-06T04:20:27.929Z,71.00
2017-11-06T04:22:55.410Z,70.80
2017-11-06T04:25:23.633Z,71.00
2017-11-06T04:27:51.312Z,71.00
2017-11-06T04:30:18.764Z,71.10
2017-11-06T04:32:46.308Z,71.00
2017-11-06T04:35:13.773Z,71.00
2017-11-06T04:37:41.551Z,71.00
2017-11-06T04:40:09.406Z,70.80
2017-11-06T04:42:37.164Z,71.40
2017-11-06T04:45:04.944Z,70.80
2017-11-06T04:47:32.429Z,70.70
2017-11-06T04:50:00.978Z,70.40
2017-11-06T04:52:28.417Z,70.30
2017-11-06T04:54:56.361Z,70.10
2017-11-06T04:57:24.481Z,70.10
2017-11-06T04:59:52.235Z,70.20
2017-11-06T05:02:19.794Z,70.90
2017-11-06T05:04:47.460Z,70.30
2017-11-06T05:07:15.749Z,70.40
2017-11-06T05:09:43.225Z,70.30
2017-11-06T05:12:11.439Z,70.70
2017-11-06T05:14:38.969Z,70.70
2017-11-06T05:17:06.432Z,70.90
2017-11-06T05:19:34.928Z,71.00
2017-11-06T05:22:02.489Z,71.00
2017-11-06T05:24:29.945Z,71.00
2017-11-06T05:26:57.502Z,71.10
2017-11-06T05:29:25.890Z,71.20
2017-11-06T05:31:53.530Z,71.30
2017-11-06T05:34:21.346Z,72.00
2017-11-06T05:36:49.477Z,71.50
2017-11-06T05:39:17.291Z,71.60
2017-11-06T05:41:44.808Z,71.50
2017-11-06T05:44:12.699Z,71.70
2017-11-06T05:46:40.841Z,71.70
2017-11-06T05:49:08.921Z,71.80
2017-11-06T05:51:36.468Z,71.90
2017-11-06T05:54:03.905Z,71.90
2017-11-06T05:56:31.734Z,71.60
2017-11-06T05:58:59.496Z,71.50
2017-11-06T06:01:26.966Z,71.50
2017-11-06T06:03:56.662Z,71.90
2017-11-06T06:06:24.134Z,71.40
2017-11-06T06:08:52.786Z,71.60
2017-11-06T06:11:20.302Z,71.50
2017-11-06T06:13:47.774Z,71.60
2017-11-06T06:16:15.230Z,71.70
2017-11-06T06:18:42.697Z,71.70
2017-11-06T06:21:10.145Z,71.80
2017-11-06T06:23:37.734Z,71.80
2017-11-06T06:26:05.291Z,71.90
2017-11-06T06:28:32.736Z,72.10
2017-11-06T06:31:01.228Z,72.00
2017-11-06T06:33:28.670Z,71.80
2017-11-06T06:35:56.107Z,71.90
2017-11-06T06:38:23.975Z,71.80
2017-11-06T06:40:52.313Z,71.70
2017-11-06T06:43:20.118Z,71.80
2017-11-06T06:45:47.574Z,72.00
2017-11-06T06:48:15.877Z,72.10
2017-11-06T06:50:43.353Z,72.00
2017-11-06T06:53:10.805Z,72.10
2017-11-06T06:55:38.274Z,72.20
2017-11-06T06:58:06.089Z,72.20
2017-11-06T07:00:33.925Z,72.30
2017-11-06T07:03:02.769Z,72.20
2017-11-06T07:05:30.220Z,72.00
2017-11-06T07:07:58.063Z,72.10
2017-11-06T07:10:25.755Z,72.00
2017-11-06T07:12:53.202Z,72.30
2017-11-06T07:15:20.670Z,72.40
2017-11-06T07:17:49.055Z,72.60
2017-11-06T07:20:16.573Z,72.70
2017-11-06T07:22:44.131Z,72.70
2017-11-06T07:25:12.133Z,72.70
2017-11-06T07:27:39.605Z,72.70
2017-11-06T07:30:07.054Z,72.70
2017-11-06T07:32:35.631Z,73.40
2017-11-06T07:35:03.292Z,72.90
2017-11-06T07:37:31.155Z,72.80
2017-11-06T07:39:59.122Z,73.00
2017-11-06T07:42:27.186Z,72.90
2017-11-06T07:44:55.027Z,72.90
2017-11-06T07:47:22.484Z,72.90
2017-11-06T07:49:50.492Z,72.90
2017-11-06T07:52:17.933Z,72.90
2017-11-06T07:54:45.433Z,72.80
2017-11-06T07:57:14.460Z,72.90
2017-11-06T07:59:41.918Z,72.90
2017-11-06T08:02:09.580Z,73.20
2017-11-06T08:04:37.164Z,73.40
2017-11-06T08:07:05.658Z,73.50
2017-11-06T08:09:33.174Z,73.40
2017-11-06T08:12:00.632Z,73.70
2017-11-06T08:14:28.100Z,73.70
2017-11-06T08:16:55.647Z,73.50
2017-11-06T08:19:23.594Z,73.00
2017-11-06T08:21:51.073Z,72.90
2017-11-06T08:24:18.546Z,72.80
2017-11-06T08:26:47.216Z,73.20
2017-11-06T08:29:14.669Z,73.50
2017-11-06T08:31:42.273Z,73.60
2017-11-06T08:34:09.716Z,73.70
2017-11-06T08:36:37.832Z,73.60
2017-11-06T08:39:05.292Z,73.30
2017-11-06T08:41:32.737Z,73.10
2017-11-06T08:44:01.290Z,73.00
2017-11-06T08:46:28.775Z,73.00
2017-11-06T08:48:57.837Z,73.10
2017-11-06T08:51:25.284Z,73.10
2017-11-06T08:53:52.839Z,73.40
2017-11-06T08:56:20.283Z,73.50
2017-11-06T08:58:48.285Z,73.80
2017-11-06T09:01:15.729Z,74.10
2017-11-06T09:03:43.661Z,74.00
2017-11-06T09:06:11.101Z,73.80
2017-11-06T09:08:39.121Z,73.10
2017-11-06T09:11:06.651Z,73.30
2017-11-06T09:13:34.115Z,73.40
2017-11-06T09:16:02.014Z,73.50
2017-11-06T09:18:29.462Z,73.70
2017-11-06T09:20:56.927Z,73.80
2017-11-06T09:23:24.366Z,73.60
2017-11-06T09:25:52.348Z,73.70
2017-11-06T09:28:19.784Z,73.60
2017-11-06T09:30:47.325Z,73.60
2017-11-06T09:33:14.886Z,73.40
2017-11-06T09:35:42.329Z,73.10
2017-11-06T09:38:10.142Z,73.70
2017-11-06T09:40:37.605Z,73.20
2017-11-06T09:43:05.390Z,73.20
2017-11-06T09:45:34.049Z,73.90
2017-11-06T09:48:01.497Z,73.80
2017-11-06T09:50:29.293Z,74.20
2017-11-06T09:52:57.533Z,73.70
2017-11-06T09:55:24.969Z,73.70
2017-11-06T09:57:52.961Z,73.90
2017-11-06T10:00:20.433Z,74.00
2017-11-06T10:02:47.917Z,73.80
2017-11-06T10:05:16.371Z,73.70
2017-11-06T10:07:44.043Z,73.70
2017-11-06T10:10:12.364Z,73.60
2017-11-06T10:12:40.076Z,73.50
2017-11-06T10:15:08.057Z,74.00
2017-11-06T10:17:36.268Z,73.00
2017-11-06T10:20:03.967Z,73.00
2017-11-06T10:22:31.417Z,72.40
2017-11-06T10:24:58.854Z,72.90
2017-11-06T10:27:26.431Z,73.00
2017-11-06T10:29:53.921Z,72.80
2017-11-06T10:32:22.248Z,73.60
2017-11-06T10:34:49.727Z,73.60
2017-11-06T10:37:19.554Z,73.40
2017-11-06T10:39:47.009Z,73.20
2017-11-06T10:42:17.412Z,72.90
2017-11-06T10:44:45.281Z,72.80
2017-11-06T10:47:12.721Z,72.70
2017-11-06T10:49:40.501Z,72.70
2017-11-06T10:52:07.962Z,73.20
2017-11-06T10:54:35.430Z,72.60
2017-11-06T10:57:02.869Z,72.80
2017-11-06T10:59:30.653Z,72.50
2017-11-06T11:01:58.426Z,71.40
2017-11-06T11:04:27.594Z,71.50
2017-11-06T11:06:55.328Z,71.40
2017-11-06T11:09:24.553Z,71.30
2017-11-06T11:11:52.005Z,71.60
2017-11-06T11:14:19.455Z,70.60
2017-11-06T11:16:46.917Z,70.70
2017-11-06T11:19:14.364Z,72.90
2017-11-06T11:21:42.036Z,72.50
2017-11-06T11:24:09.462Z,72.90
2017-11-06T11:26:36.966Z,70.20
2017-11-06T11:29:04.417Z,69.90
2017-11-06T11:31:31.941Z,69.60
2017-11-06T11:33:59.409Z,68.20
2017-11-06T11:36:27.180Z,67.00
2017-11-06T11:38:55.009Z,65.70
2017-11-06T11:41:22.625Z,65.00
2017-11-06T11:43:51.918Z,64.20
2017-11-06T11:46:19.362Z,64.20
2017-11-06T11:48:47.350Z,64.70
2017-11-06T11:51:14.868Z,65.00
2017-11-06T11:53:42.324Z,65.50
2017-11-06T11:56:09.884Z,66.00
2017-11-06T11:58:38.805Z,66.20
2017-11-06T12:01:06.332Z,65.30
2017-11-06T12:03:34.242Z,65.60
2017-11-06T12:06:01.685Z,65.30
2017-11-06T12:08:29.333Z,65.20
2017-11-06T12:10:56.874Z,66.00
2017-11-06T12:13:24.341Z,66.70
2017-11-06T12:15:51.813Z,67.20
2017-11-06T12:18:19.265Z,66.60
2017-11-06T12:20:47.441Z,66.80
2017-11-06T12:23:14.897Z,66.50
2017-11-06T12:25:42.564Z,65.90
2017-11-06T12:28:10.017Z,65.10
2017-11-06T12:30:37.764Z,64.90
2017-11-06T12:33:05.313Z,63.60
2017-11-06T12:35:33.372Z,64.70
2017-11-06T12:38:01.298Z,63.40
2017-11-06T12:40:28.749Z,63.20
2017-11-06T12:42:56.520Z,62.20
2017-11-06T12:45:25.081Z,62.40
2017-11-06T12:47:53.861Z,62.30
2017-11-06T12:50:21.811Z,62.40
2017-11-06T12:52:49.265Z,62.20
2017-11-06T12:55:16.722Z,60.80
2017-11-06T12:57:44.461Z,61.30
2017-11-06T13:00:12.498Z,61.10
2017-11-06T13:02:39.971Z,62.10
2017-11-06T13:05:09.149Z,60.60
2017-11-06T13:07:36.907Z,60.60
2017-11-06T13:10:04.368Z,59.80
2017-11-06T13:12:31.986Z,59.40
2017-11-06T13:14:59.443Z,59.60
2017-11-06T13:17:27.003Z,59.70
2017-11-06T13:19:54.465Z,60.40
2017-11-06T13:22:22.019Z,61.40
2017-11-06T13:24:49.474Z,62.90
2017-11-06T13:27:18.094Z,63.90
2017-11-06T13:29:45.530Z,63.10
2017-11-06T13:32:13.068Z,63.10
2017-11-06T13:34:40.533Z,61.80
2017-11-06T13:37:08.232Z,61.00
2017-11-06T13:39:35.677Z,59.00
2017-11-06T13:42:03.149Z,56.70
2017-11-06T13:44:31.709Z,56.10
2017-11-06T13:46:59.182Z,56.10
2017-11-06T13:49:27.033Z,54.00
2017-11-06T13:51:54.723Z,54.10
2017-11-06T13:54:23.368Z,52.20
2017-11-06T13:56:50.832Z,52.20
2017-11-06T13:59:18.817Z,50.90
2017-11-06T14:01:46.251Z,50.50
2017-11-06T14:04:14.436Z,51.40
2017-11-06T14:06:41.885Z,50.60
2017-11-06T14:09:09.900Z,51.00
2017-11-06T14:11:38.124Z,51.10
2017-11-06T14:14:05.607Z,51.10
2017-11-06T14:16:33.084Z,51.10
2017-11-06T14:19:00.521Z,52.20
2017-11-06T14:21:27.974Z,53.80
2017-11-06T14:23:55.786Z,54.50
2017-11-06T14:26:23.233Z,54.80
2017-11-06T14:28:51.485Z,52.20
2017-11-06T14:31:18.915Z,52.20
2017-11-06T14:33:46.378Z,51.40
2017-11-06T14:36:13.810Z,51.00
2017-11-06T14:38:41.711Z,51.20
2017-11-06T14:41:09.225Z,51.70
2017-11-06T14:43:37.174Z,52.00
2017-11-06T14:46:05.920Z,52.50
2017-11-06T14:48:33.824Z,52.50
2017-11-06T14:51:02.053Z,53.40
2017-11-06T14:53:29.592Z,53.40
2017-11-06T14:55:57.138Z,53.50
2017-11-06T14:58:25.125Z,54.30
2017-11-06T15:00:53.076Z,54.40
2017-11-06T15:03:21.146Z,55.20
2017-11-06T15:05:48.602Z,55.80
2017-11-06T15:08:16.405Z,56.30
2017-11-06T15:10:44.189Z,56.90
2017-11-06T15:13:12.397Z,57.80
2017-11-06T15:15:39.871Z,57.80
2017-11-06T15:18:07.307Z,57.80
2017-11-06T15:20:34.880Z,58.20
2017-11-06T15:23:02.353Z,57.90
2017-11-06T15:25:30.070Z,58.30
2017-11-06T15:27:57.593Z,58.80
2017-11-06T15:30:25.027Z,59.00
2017-11-06T15:32:52.498Z,59.30
2017-11-06T15:35:19.953Z,59.10
2017-11-06T15:37:48.097Z,59.60
2017-11-06T15:40:16.303Z,60.10
2017-11-06T15:42:44.285Z,60.10
2017-11-06T15:45:12.240Z,60.70
2017-11-06T15:47:39.878Z,61.10
2017-11-06T15:50:07.639Z,61.50
2017-11-06T15:52:35.088Z,61.60
2017-11-06T15:55:02.588Z,61.90
2017-11-06T15:57:30.497Z,62.30
2017-11-06T15:59:58.274Z,62.60
2017-11-06T16:02:25.733Z,62.50
2017-11-06T16:04:53.534Z,62.40
2017-11-06T16:07:21.699Z,62.50
2017-11-06T16:09:49.143Z,62.70
2017-11-06T16:12:17.054Z,63.10
2017-11-06T16:14:45.367Z,63.50
2017-11-06T16:17:12.927Z,63.30
2017-11-06T16:19:40.375Z,63.50
2017-11-06T16:22:07.862Z,63.80
2017-11-06T16:24:35.407Z,64.00
2017-11-06T16:27:02.873Z,64.10
2017-11-06T16:29:30.561Z,64.20
2017-11-06T16:31:58.176Z,64.20
2017-11-06T16:34:25.875Z,64.20
2017-11-06T16:36:53.850Z,64.30
2017-11-06T16:39:21.309Z,64.40
2017-11-06T16:41:48.777Z,64.30
2017-11-06T16:44:17.462Z,64.60
2017-11-06T16:46:46.149Z,64.60
2017-11-06T16:49:14.092Z,64.60
2017-11-06T16:51:41.540Z,64.60
2017-11-06T16:54:08.994Z,64.60
2017-11-06T16:56:36.476Z,64.60
2017-11-06T16:59:04.356Z,64.50
2017-11-06T17:01:32.982Z,64.40
2017-11-06T17:04:00.858Z,64.40
2017-11-06T17:06:28.845Z,64.60
2017-11-06T17:08:56.955Z,64.50
2017-11-06T17:11:25.183Z,64.60
2017-11-06T17:13:52.720Z,64.60
2017-11-06T17:16:20.217Z,64.60
2017-11-06T17:18:47.661Z,64.40
2017-11-06T17:21:15.169Z,64.40
2017-11-06T17:23:43.553Z,64.50
2017-11-06T17:26:11.260Z,64.90
2017-11-06T17:28:38.708Z,64.90
2017-11-06T17:31:06.167Z,65.10
2017-11-06T17:33:33.632Z,65.20
2017-11-06T17:36:01.078Z,65.10
2017-11-06T17:38:29.055Z,65.00
2017-11-06T17:40:56.506Z,64.70
2017-11-06T17:43:24.481Z,64.60
2017-11-06T17:45:52.549Z,64.80
2017-11-06T17:48:20.488Z,64.90
2017-11-06T17:50:47.943Z,65.00
2017-11-06T17:53:15.406Z,65.10
2017-11-06T17:55:42.957Z,65.20
2017-11-06T17:58:10.822Z,65.70
2017-11-06T18:00:38.636Z,65.60
2017-11-06T18:03:06.719Z,65.70
2017-11-06T18:05:34.189Z,65.30
2017-11-06T18:08:03.031Z,64.40
2017-11-06T18:10:30.479Z,64.40
2017-11-06T18:12:57.946Z,65.30
2017-11-06T18:15:25.477Z,65.00
2017-11-06T18:17:53.071Z,66.00
2017-11-06T18:20:21.155Z,66.00
2017-11-06T18:22:48.598Z,65.90
2017-11-06T18:25:16.941Z,65.70
2017-11-06T18:27:44.408Z,65.50
2017-11-06T18:30:11.851Z,65.30
2017-11-06T18:32:39.411Z,65.60
2017-11-06T18:35:06.850Z,65.60
2017-11-06T18:37:34.774Z,66.30
2017-11-06T18:40:02.298Z,66.50
2017-11-06T18:42:30.743Z,66.50
2017-11-06T18:44:59.460Z,65.90
2017-11-06T18:47:27.360Z,65.90
2017-11-06T18:49:55.334Z,66.00
2017-11-06T18:52:23.067Z,65.90
2017-11-06T18:54:50.617Z,65.80
2017-11-06T18:57:19.617Z,66.50
2017-11-06T18:59:48.222Z,65.20
2017-11-06T19:02:15.987Z,65.00
2017-11-06T19:04:44.402Z,65.10
2017-11-06T19:07:13.363Z,64.70
2017-11-06T19:09:40.806Z,64.70
2017-11-06T19:12:08.269Z,65.20
2017-11-06T19:14:35.713Z,65.90
2017-11-06T19:17:03.355Z,66.00
2017-11-06T19:19:30.798Z,65.90
2017-11-06T19:21:58.373Z,65.80
2017-11-06T19:24:25.827Z,65.60
2017-11-06T19:26:53.353Z,65.70
2017-11-06T19:29:21.672Z,65.10
2017-11-06T19:31:49.118Z,65.00
2017-11-06T19:34:17.422Z,64.90
2017-11-06T19:36:45.816Z,65.00
2017-11-06T19:39:13.523Z,65.10
2017-11-06T19:41:41.115Z,65.10
2017-11-06T19:44:08.895Z,65.00
2017-11-06T19:46:36.417Z,64.90
2017-11-06T19:49:04.491Z,64.70
2017-11-06T19:51:31.942Z,64.90
2017-11-06T19:53:59.393Z,65.00
2017-11-06T19:56:26.896Z,64.80
2017-11-06T19:58:55.434Z,64.50
2017-11-06T20:01:23.306Z,64.20
2017-11-06T20:03:51.822Z,64.30
2017-11-06T20:06:19.313Z,64.30
2017-11-06T20:08:49.498Z,64.50
2017-11-06T20:11:17.945Z,64.50
2017-11-06T20:13:45.501Z,64.40
2017-11-06T20:16:12.958Z,64.30
2017-11-06T20:18:40.551Z,64.30
2017-11-06T20:21:08.018Z,64.20
2017-11-06T20:23:35.883Z,64.40
2017-11-06T20:26:03.323Z,64.40
2017-11-06T20:28:30.811Z,64.70
2017-11-06T20:30:59.111Z,64.60
2017-11-06T20:33:26.958Z,64.60
2017-11-06T20:35:55.225Z,64.60
2017-11-06T20:38:23.321Z,64.20
2017-11-06T20:40:51.529Z,64.30
2017-11-06T20:43:19.144Z,64.20
2017-11-06T20:45:47.378Z,64.30
2017-11-06T20:48:15.791Z,64.30
2017-11-06T20:50:44.030Z,64.20
2017-11-06T20:53:11.486Z,64.20
2017-11-06T20:55:38.960Z,64.40
2017-11-06T20:58:06.679Z,64.40
2017-11-06T21:00:34.166Z,64.50
2017-11-06T21:03:02.642Z,64.40
2017-11-06T21:05:30.154Z,64.30
2017-11-06T21:07:58.246Z,64.30
2017-11-06T21:10:25.741Z,64.10
2017-11-06T21:12:53.189Z,63.90
2017-11-06T21:15:20.741Z,63.80
2017-11-06T21:17:49.639Z,63.60
2017-11-06T21:20:17.681Z,63.60
2017-11-06T21:22:45.157Z,63.50
2017-11-06T21:25:12.687Z,63.80
2017-11-06T21:27:40.150Z,63.80
2017-11-06T21:30:13.371Z,63.90
2017-11-06T21:32:40.808Z,64.30
2017-11-06T21:35:08.327Z,64.70
2017-11-06T21:37:37.129Z,65.00
2017-11-06T21:40:04.598Z,65.00
2017-11-06T21:42:32.927Z,64.80
2017-11-06T21:45:00.366Z,64.60
2017-11-06T21:47:28.611Z,64.60
2017-11-06T21:49:56.914Z,64.60
2017-11-06T21:52:24.812Z,64.60
2017-11-06T21:54:53.373Z,64.80
2017-11-06T22:00:05.455Z,64.50
2017-11-06T22:02:32.907Z,64.40
2017-11-06T22:05:00.894Z,64.30
2017-11-06T22:07:29.216Z,64.70
2017-11-06T22:09:58.019Z,64.00
2017-11-06T22:12:25.496Z,64.00
2017-11-06T22:14:52.982Z,64.30
2017-11-06T22:17:20.438Z,64.10
2017-11-06T22:19:47.986Z,64.20
2017-11-06T22:22:15.769Z,64.40
2017-11-06T22:24:43.249Z,64.20
2017-11-06T22:27:11.704Z,64.30
2017-11-06T22:29:39.157Z,64.30
2017-11-06T22:32:06.638Z,64.50
2017-11-06T22:34:34.884Z,65.20
2017-11-06T22:37:02.365Z,65.10
2017-11-06T22:39:30.584Z,65.20
2017-11-06T22:41:58.058Z,65.20
2017-11-06T22:44:25.874Z,65.30
2017-11-06T22:46:54.635Z,65.30
2017-11-06T22:49:22.498Z,65.30
2017-11-06T22:51:49.937Z,65.20
2017-11-06T22:54:18.122Z,65.10
2017-11-06T22:56:45.565Z,65.20
2017-11-06T22:59:13.382Z,65.20
2017-11-06T23:01:41.610Z,65.40
2017-11-06T23:04:10.119Z,65.40
2017-11-06T23:06:37.594Z,65.30
2017-11-06T23:09:06.352Z,65.30
2017-11-06T23:11:34.311Z,65.20
2017-11-06T23:14:01.766Z,65.20
2017-11-06T23:16:29.223Z,65.20
2017-11-06T23:18:56.702Z,65.20
2017-11-06T23:21:24.189Z,65.40
2017-11-06T23:23:51.630Z,65.40
2017-11-06T23:26:20.244Z,65.40
2017-11-06T23:28:47.684Z,65.40
2017-11-06T23:31:15.147Z,65.50
2017-11-06T23:33:42.591Z,65.50
2017-11-06T23:36:10.914Z,65.60
2017-11-06T23:38:38.450Z,65.60
2017-11-06T23:41:05.905Z,65.60
2017-11-06T23:43:33.973Z,65.70
2017-11-06T23:46:01.968Z,65.60
2017-11-06T23:48:30.579Z,65.60
2017-11-06T23:50:59.658Z,65.40
2017-11-06T23:53:28.156Z,65.20
2017-11-06T23:55:55.902Z,65.10
2017-11-06T23:58:23.970Z,64.90
